createdAt,value
2022-09-12T00:02:13.291Z,100.00
2022-09-12T00:08:22.005Z,100.00
2022-09-12T00:14:41.968Z,100.00
2022-09-12T00:21:10.876Z,100.00
2022-09-12T00:26:50.719Z,100.00
2022-09-12T00:32:32.646Z,100.00
2022-09-12T00:38:50.109Z,100.00
2022-09-12T00:45:14.970Z,100.00
2022-09-12T00:51:38.522Z,100.00
2022-09-12T00:58:07.529Z,100.00
2022-09-12T01:04:14.893Z,100.00
2022-09-12T01:10:15.996Z,100.00
2022-09-12T01:16:24.675Z,100.00
2022-09-12T01:22:50.109Z,100.00
2022-09-12T01:30:08.531Z,100.00
2022-09-12T01:36:58.401Z,100.00
2022-09-12T01:43:25.698Z,100.00
2022-09-12T01:50:11.987Z,100.00
2022-09-12T01:56:25.895Z,100.00
2022-09-12T02:02:20.200Z,100.00
2022-09-12T02:08:32.354Z,100.00
2022-09-12T02:14:37.047Z,100.00
2022-09-12T02:20:56.400Z,100.00
2022-09-12T02:27:10.036Z,100.00
2022-09-12T02:33:37.761Z,100.00
2022-09-12T02:39:52.821Z,100.00
2022-09-12T02:46:14.107Z,100.00
2022-09-12T02:52:33.672Z,100.00
2022-09-12T02:58:58.036Z,100.00
2022-09-12T03:05:25.440Z,100.00
2022-09-12T03:12:18.516Z,100.00
2022-09-12T03:18:43.321Z,100.00
2022-09-12T03:25:37.296Z,100.00
2022-09-12T03:32:18.944Z,100.00
2022-09-12T03:39:06.812Z,100.00
2022-09-12T03:45:32.659Z,100.00
2022-09-12T03:51:31.129Z,100.00
2022-09-12T03:56:45.715Z,100.00
2022-09-12T04:02:36.504Z,100.00
2022-09-12T04:08:12.295Z,100.00
2022-09-12T04:13:46.872Z,100.00
2022-09-12T04:19:42.339Z,100.00
2022-09-12T04:25:37.908Z,100.00
2022-09-12T04:31:42.001Z,100.00
2022-09-12T04:38:07.893Z,100.00
2022-09-12T04:44:03.222Z,100.00
2022-09-12T04:50:19.344Z,100.00
2022-09-12T04:56:19.751Z,100.00
2022-09-12T05:02:20.545Z,100.00
2022-09-12T05:07:38.214Z,100.00
2022-09-12T05:13:26.074Z,100.00
2022-09-12T05:19:27.997Z,100.00
2022-09-12T05:25:12.309Z,100.00
2022-09-12T05:31:01.167Z,100.00
2022-09-12T05:36:58.317Z,100.00
2022-09-12T05:42:54.925Z,100.00
2022-09-12T05:48:39.614Z,100.00
2022-09-12T05:54:20.823Z,100.00
2022-09-12T06:00:13.951Z,100.00
2022-09-12T06:05:56.728Z,100.00
2022-09-12T06:11:50.937Z,100.00
2022-09-12T06:18:00.037Z,100.00
2022-09-12T06:24:12.027Z,100.00
2022-09-12T06:29:21.992Z,100.00
2022-09-12T06:34:38.175Z,100.00
2022-09-12T06:39:57.487Z,100.00
2022-09-12T06:45:31.499Z,100.00
2022-09-12T06:51:06.217Z,100.00
2022-09-12T06:56:48.262Z,100.00
2022-09-12T07:02:20.171Z,99.89
2022-09-12T07:08:12.879Z,99.66
2022-09-12T07:13:45.160Z,98.75
2022-09-12T07:19:05.648Z,97.81
2022-09-12T07:24:12.016Z,97.22
2022-09-12T07:29:36.885Z,96.87
2022-09-12T07:34:50.073Z,96.36
2022-09-12T07:40:13.230Z,95.01
2022-09-12T07:46:01.612Z,94.73
2022-09-12T07:51:38.422Z,94.39
2022-09-12T07:57:22.423Z,93.53
2022-09-12T08:02:50.708Z,93.36
2022-09-12T08:08:27.717Z,92.90
2022-09-12T08:14:17.842Z,91.49
2022-09-12T08:20:25.361Z,90.38
2022-09-12T08:26:08.592Z,89.95
2022-09-12T08:32:08.386Z,89.01
2022-09-12T08:37:13.612Z,87.48
2022-09-12T08:43:18.042Z,87.43
2022-09-12T08:48:34.308Z,87.36
2022-09-12T08:54:04.148Z,86.54
2022-09-12T08:59:49.395Z,86.36
2022-09-12T09:05:33.772Z,86.42
2022-09-12T09:11:46.764Z,85.70
2022-09-12T09:17:08.836Z,84.58
2022-09-12T09:23:15.988Z,84.36
2022-09-12T09:29:02.563Z,83.75
2022-09-12T09:34:48.605Z,83.35
2022-09-12T09:40:27.015Z,82.97
2022-09-12T09:46:12.363Z,81.42
2022-09-12T09:51:42.032Z,81.21
2022-09-12T09:57:12.474Z,81.38
2022-09-12T10:02:38.839Z,80.49
2022-09-12T10:07:50.374Z,78.94
2022-09-12T10:13:18.000Z,79.08
2022-09-12T10:18:42.551Z,78.41
2022-09-12T10:24:00.204Z,77.77
2022-09-12T10:29:35.316Z,77.61
2022-09-12T10:34:55.099Z,77.35
2022-09-12T10:40:20.783Z,76.50
2022-09-12T10:45:47.260Z,76.48
2022-09-12T10:51:07.007Z,76.15
2022-09-12T10:56:33.758Z,75.83
2022-09-12T11:02:34.697Z,75.70
2022-09-12T11:09:18.635Z,74.80
2022-09-12T11:15:30.389Z,74.87
2022-09-12T11:21:39.980Z,74.38
2022-09-12T11:27:18.545Z,74.78
2022-09-12T11:33:58.807Z,75.21
2022-09-12T11:39:45.042Z,74.39
2022-09-12T11:44:57.755Z,74.66
2022-09-12T11:50:26.471Z,74.36
2022-09-12T11:55:44.018Z,74.50
2022-09-12T12:01:03.335Z,74.94
2022-09-12T12:06:42.016Z,74.71
2022-09-12T12:11:57.148Z,74.71
2022-09-12T12:17:34.771Z,75.09
2022-09-12T12:22:37.475Z,75.36
2022-09-12T12:27:55.945Z,75.01
2022-09-12T12:33:30.215Z,74.72
2022-09-12T12:38:52.528Z,74.86
2022-09-12T12:43:57.885Z,74.69
2022-09-12T12:49:24.739Z,74.71
2022-09-12T12:54:27.219Z,74.77
2022-09-12T12:59:32.507Z,74.43
2022-09-12T13:04:35.185Z,74.73
2022-09-12T13:10:07.037Z,74.87
2022-09-12T13:16:06.146Z,75.41
2022-09-12T13:21:23.959Z,75.05
2022-09-12T13:26:36.273Z,74.95
2022-09-12T13:32:00.840Z,74.93
2022-09-12T13:37:51.427Z,74.87
2022-09-12T13:43:57.300Z,75.15
2022-09-12T13:49:33.577Z,74.93
2022-09-12T13:54:48.586Z,74.87
2022-09-12T13:59:57.628Z,74.96
2022-09-12T14:05:10.256Z,75.11
2022-09-12T14:10:38.078Z,75.34
2022-09-12T14:15:45.470Z,75.64
2022-09-12T14:20:54.220Z,75.67
2022-09-12T14:26:08.361Z,76.06
2022-09-12T14:32:09.770Z,76.26
2022-09-12T14:37:25.340Z,76.19
2022-09-12T14:42:50.456Z,76.37
2022-09-12T14:48:21.416Z,76.37
2022-09-12T14:53:45.488Z,76.56
2022-09-12T15:00:20.258Z,76.92
2022-09-12T15:05:26.039Z,77.39
2022-09-12T15:11:21.599Z,77.68
2022-09-12T15:17:03.419Z,77.80
2022-09-12T15:22:14.196Z,77.86
2022-09-12T15:27:25.137Z,77.61
2022-09-12T15:32:31.103Z,77.36
2022-09-12T15:38:17.100Z,77.44
2022-09-12T15:43:49.638Z,77.44
2022-09-12T15:49:23.639Z,77.72
2022-09-12T15:54:28.588Z,77.65
2022-09-12T15:59:42.243Z,78.07
2022-09-12T16:05:22.564Z,78.26
2022-09-12T16:10:49.726Z,78.43
2022-09-12T16:16:17.621Z,78.69
2022-09-12T16:21:40.007Z,79.01
2022-09-12T16:27:17.803Z,79.46
2022-09-12T16:32:47.558Z,79.90
2022-09-12T16:38:04.249Z,80.27
2022-09-12T16:43:31.331Z,80.72
2022-09-12T16:49:13.164Z,81.05
2022-09-12T16:55:25.689Z,81.53
2022-09-12T17:00:47.922Z,82.03
2022-09-12T17:06:15.870Z,82.52
2022-09-12T17:11:45.225Z,83.10
2022-09-12T17:17:07.364Z,83.58
2022-09-12T17:22:38.671Z,83.86
2022-09-12T17:28:05.850Z,84.24
2022-09-12T17:33:25.080Z,84.76
2022-09-12T17:39:03.937Z,85.03
2022-09-12T17:44:53.014Z,85.61
2022-09-12T17:50:30.873Z,85.88
2022-09-12T17:56:05.431Z,86.29
2022-09-12T18:01:52.649Z,86.76
2022-09-12T18:08:17.167Z,87.23
2022-09-12T18:13:26.945Z,87.64
2022-09-12T18:18:37.771Z,87.89
2022-09-12T18:24:25.514Z,88.26
2022-09-12T18:30:21.018Z,88.57
2022-09-12T18:35:39.309Z,89.01
2022-09-12T18:41:57.123Z,89.46
2022-09-12T18:47:30.642Z,90.00
2022-09-12T18:52:59.518Z,90.24
2022-09-12T18:58:02.181Z,90.37
2022-09-12T19:04:20.338Z,90.89
2022-09-12T19:10:43.720Z,91.10
2022-09-12T19:16:27.362Z,91.69
2022-09-12T19:21:56.165Z,92.12
2022-09-12T19:27:13.116Z,92.17
2022-09-12T19:33:23.665Z,92.18
2022-09-12T19:39:07.526Z,92.53
2022-09-12T19:44:55.977Z,92.74
2022-09-12T19:50:12.562Z,92.77
2022-09-12T19:55:15.022Z,92.99
2022-09-12T20:00:48.955Z,93.30
2022-09-12T20:06:06.934Z,93.66
2022-09-12T20:11:10.611Z,93.72
2022-09-12T20:16:33.563Z,93.82
2022-09-12T20:22:10.752Z,94.17
2022-09-12T20:27:12.995Z,94.65
2022-09-12T20:32:23.965Z,94.61
2022-09-12T20:37:41.149Z,94.64
2022-09-12T20:42:54.637Z,94.64
2022-09-12T20:48:09.915Z,95.20
2022-09-12T20:53:45.665Z,95.63
2022-09-12T20:59:06.216Z,95.80
2022-09-12T21:04:54.094Z,95.76
2022-09-12T21:10:47.037Z,96.03
2022-09-12T21:17:07.726Z,96.72
2022-09-12T21:23:41.215Z,96.47
2022-09-12T21:29:34.604Z,96.58
2022-09-12T21:35:11.207Z,97.07
2022-09-12T21:40:57.465Z,97.39
2022-09-12T21:46:17.116Z,97.68
2022-09-12T21:51:57.834Z,97.81
2022-09-12T21:57:20.327Z,98.09
2022-09-12T22:03:28.203Z,97.82
2022-09-12T22:09:10.548Z,97.79
2022-09-12T22:14:29.770Z,98.31
2022-09-12T22:20:00.970Z,98.47
2022-09-12T22:26:18.419Z,98.88
2022-09-12T22:32:11.219Z,98.95
2022-09-12T22:38:32.895Z,98.92
2022-09-12T22:44:25.627Z,98.89
2022-09-12T22:50:21.479Z,99.08
2022-09-12T22:56:20.295Z,99.13
2022-09-12T23:02:29.781Z,99.06
2022-09-12T23:07:52.769Z,99.11
2022-09-12T23:13:20.705Z,99.37
2022-09-12T23:18:52.176Z,99.51
2022-09-12T23:24:04.900Z,99.60
2022-09-12T23:29:35.695Z,99.82
2022-09-12T23:34:59.625Z,99.91
2022-09-12T23:40:37.018Z,99.96
2022-09-12T23:46:19.802Z,99.91
2022-09-12T23:52:11.148Z,99.88
2022-09-12T23:58:34.113Z,99.90
